createdAt,value
2023-01-11T00:01:58.332Z,2.58
2023-01-11T00:04:30.746Z,2.50
2023-01-11T00:07:00.222Z,2.60
2023-01-11T00:09:29.357Z,2.85
2023-01-11T00:11:58.324Z,2.63
2023-01-11T00:14:27.455Z,2.15
2023-01-11T00:16:56.584Z,2.92
2023-01-11T00:19:25.984Z,2.95
2023-01-11T00:21:56.363Z,2.50
2023-01-11T00:24:25.382Z,2.50
2023-01-11T00:26:54.274Z,2.63
2023-01-11T00:29:23.885Z,2.05
2023-01-11T00:31:53.517Z,2.30
2023-01-11T00:34:22.522Z,2.70
2023-01-11T00:36:51.783Z,2.50
2023-01-11T00:39:22.315Z,2.80
2023-01-11T00:42:08.774Z,2.30
2023-01-11T00:44:55.197Z,2.17
2023-01-11T00:47:41.537Z,2.30
2023-01-11T00:50:12.322Z,2.73
2023-01-11T00:52:41.295Z,2.20
2023-01-11T00:55:14.678Z,2.30
2023-01-11T00:57:43.905Z,3.33
2023-01-11T01:00:14.907Z,2.83
2023-01-11T01:02:44.051Z,2.50
2023-01-11T01:05:13.738Z,2.87
2023-01-11T01:07:42.951Z,2.90
2023-01-11T01:10:16.686Z,2.50
2023-01-11T01:13:02.777Z,2.90
2023-01-11T01:15:31.999Z,2.30
2023-01-11T01:18:01.089Z,2.60
2023-01-11T01:20:30.220Z,2.70
2023-01-11T01:22:59.134Z,2.20
2023-01-11T01:25:29.472Z,2.33
2023-01-11T01:27:58.441Z,2.60
2023-01-11T01:30:27.691Z,2.73
2023-01-11T01:32:56.738Z,2.72
2023-01-11T01:35:25.973Z,2.70
2023-01-11T01:37:54.828Z,2.75
2023-01-11T01:40:24.732Z,2.55
2023-01-11T01:42:56.855Z,2.50
2023-01-11T01:45:29.165Z,2.60
2023-01-11T01:48:01.767Z,3.20
2023-01-11T01:50:37.372Z,6.50
2023-01-11T01:53:13.877Z,4.00
2023-01-11T01:55:49.961Z,6.97
2023-01-11T01:58:27.051Z,4.70
2023-01-11T02:00:56.382Z,4.90
2023-01-11T02:03:28.776Z,3.50
2023-01-11T02:05:58.083Z,3.07
2023-01-11T02:08:42.587Z,2.97
2023-01-11T02:11:29.846Z,5.70
2023-01-11T02:14:03.820Z,4.17
2023-01-11T02:16:33.238Z,3.40
2023-01-11T02:19:03.105Z,2.67
2023-01-11T02:21:54.260Z,3.17
2023-01-11T02:24:58.024Z,3.08
2023-01-11T02:27:47.561Z,2.80
2023-01-11T02:30:29.886Z,2.90
2023-01-11T02:33:16.174Z,2.90
2023-01-11T02:35:56.488Z,2.80
2023-01-11T02:38:34.689Z,2.90
2023-01-11T02:41:12.186Z,2.90
2023-01-11T02:44:07.921Z,3.00
2023-01-11T02:46:47.570Z,2.80
2023-01-11T02:49:28.708Z,2.77
2023-01-11T02:52:10.153Z,3.07
2023-01-11T02:54:44.878Z,2.67
2023-01-11T02:57:18.987Z,2.97
2023-01-11T02:59:51.416Z,2.67
2023-01-11T03:02:20.446Z,2.93
2023-01-11T03:04:49.492Z,3.43
2023-01-11T03:07:47.120Z,3.00
2023-01-11T03:10:29.907Z,2.80
2023-01-11T03:13:13.498Z,3.13
2023-01-11T03:16:14.463Z,2.87
2023-01-11T03:18:54.939Z,2.80
2023-01-11T03:21:42.927Z,3.00
2023-01-11T03:24:28.573Z,3.00
2023-01-11T03:27:16.825Z,2.80
2023-01-11T03:29:54.208Z,3.10
2023-01-11T03:32:34.999Z,3.20
2023-01-11T03:35:18.330Z,3.43
2023-01-11T03:37:59.176Z,3.07
2023-01-11T03:40:34.405Z,3.10
2023-01-11T03:43:13.622Z,3.03
2023-01-11T03:45:54.876Z,2.90
2023-01-11T03:48:32.497Z,3.87
2023-01-11T03:51:05.058Z,2.63
2023-01-11T03:53:40.245Z,3.07
2023-01-11T03:56:15.731Z,2.77
2023-01-11T03:58:46.128Z,3.07
2023-01-11T04:01:16.212Z,3.33
2023-01-11T04:03:47.260Z,3.23
2023-01-11T04:06:20.669Z,3.17
2023-01-11T04:08:52.600Z,3.70
2023-01-11T04:11:21.810Z,4.63
2023-01-11T04:13:50.694Z,3.40
2023-01-11T04:16:20.189Z,3.17
2023-01-11T04:18:50.643Z,3.50
2023-01-11T04:21:19.806Z,3.43
2023-01-11T04:23:48.942Z,3.30
2023-01-11T04:26:21.303Z,3.13
2023-01-11T04:28:51.630Z,3.20
2023-01-11T04:31:22.199Z,3.40
2023-01-11T04:33:52.762Z,2.90
2023-01-11T04:36:22.048Z,4.00
2023-01-11T04:38:51.303Z,3.53
2023-01-11T04:41:37.596Z,3.00
2023-01-11T04:44:07.881Z,3.47
2023-01-11T04:46:37.289Z,4.50
2023-01-11T04:49:07.705Z,3.43
2023-01-11T04:51:37.278Z,3.60
2023-01-11T04:54:06.673Z,8.50
2023-01-11T04:56:38.321Z,5.47
2023-01-11T04:59:07.376Z,4.07
2023-01-11T05:01:37.002Z,4.13
2023-01-11T05:04:07.384Z,6.00
2023-01-11T05:06:40.395Z,3.87
2023-01-11T05:09:14.739Z,3.70
2023-01-11T05:11:45.200Z,3.90
2023-01-11T05:14:14.843Z,3.57
2023-01-11T05:16:45.119Z,3.20
2023-01-11T05:19:15.747Z,4.07
2023-01-11T05:21:44.768Z,3.57
2023-01-11T05:24:17.238Z,3.97
2023-01-11T05:26:48.572Z,3.70
2023-01-11T05:29:20.540Z,3.77
2023-01-11T05:31:50.515Z,3.47
2023-01-11T05:34:20.959Z,5.13
2023-01-11T05:36:50.019Z,3.83
2023-01-11T05:39:18.980Z,4.70
2023-01-11T05:41:50.844Z,7.70
2023-01-11T05:44:37.959Z,7.83
2023-01-11T05:47:07.167Z,13.13
2023-01-11T05:49:37.624Z,9.03
2023-01-11T05:52:06.899Z,4.43
2023-01-11T05:54:36.032Z,5.90
2023-01-11T05:57:10.731Z,5.30
2023-01-11T05:59:39.946Z,3.97
2023-01-11T06:02:09.224Z,3.27
2023-01-11T06:04:41.786Z,3.30
2023-01-11T06:07:11.156Z,3.43
2023-01-11T06:09:40.648Z,3.77
2023-01-11T06:12:10.070Z,3.70
2023-01-11T06:14:39.157Z,3.90
2023-01-11T06:17:08.401Z,3.30
2023-01-11T06:19:39.123Z,3.80
2023-01-11T06:22:08.234Z,3.50
2023-01-11T06:24:37.526Z,3.70
2023-01-11T06:27:09.631Z,3.40
2023-01-11T06:29:38.606Z,3.40
2023-01-11T06:32:08.846Z,4.00
2023-01-11T06:34:39.510Z,3.73
2023-01-11T06:37:08.824Z,3.80
2023-01-11T06:39:38.061Z,3.87
2023-01-11T06:42:07.502Z,3.30
2023-01-11T06:44:36.707Z,3.80
2023-01-11T06:47:06.082Z,3.20
2023-01-11T06:49:35.072Z,3.90
2023-01-11T06:52:05.837Z,3.37
2023-01-11T06:54:34.819Z,3.60
2023-01-11T06:57:03.919Z,3.70
2023-01-11T06:59:33.199Z,3.10
2023-01-11T07:02:02.676Z,3.83
2023-01-11T07:04:32.196Z,3.40
2023-01-11T07:07:01.176Z,3.00
2023-01-11T07:09:31.575Z,3.58
2023-01-11T07:12:00.615Z,3.60
2023-01-11T07:14:30.135Z,3.60
2023-01-11T07:16:58.917Z,3.10
2023-01-11T07:19:27.798Z,3.38
2023-01-11T07:21:56.632Z,2.97
2023-01-11T07:24:25.803Z,2.60
2023-01-11T07:26:56.407Z,2.88
2023-01-11T07:29:25.245Z,3.08
2023-01-11T07:31:54.140Z,2.72
2023-01-11T07:34:23.976Z,2.72
2023-01-11T07:36:53.046Z,2.92
2023-01-11T07:39:26.829Z,2.55
2023-01-11T07:42:19.250Z,2.00
2023-01-11T07:44:48.253Z,2.40
2023-01-11T07:47:17.275Z,1.90
2023-01-11T07:49:46.065Z,2.28
2023-01-11T07:52:14.946Z,2.05
2023-01-11T07:54:43.778Z,1.90
2023-01-11T07:57:13.990Z,2.00
2023-01-11T07:59:42.839Z,2.95
2023-01-11T08:02:12.689Z,3.22
2023-01-11T08:04:41.528Z,2.60
2023-01-11T08:07:10.461Z,3.65
2023-01-11T08:09:39.301Z,2.38
2023-01-11T08:12:26.377Z,2.28
2023-01-11T08:14:56.992Z,3.80
2023-01-11T08:17:25.896Z,3.05
2023-01-11T08:19:55.966Z,2.00
2023-01-11T08:22:24.860Z,2.10
2023-01-11T08:24:53.703Z,1.60
2023-01-11T08:27:22.584Z,2.00
2023-01-11T08:29:51.473Z,1.60
2023-01-11T08:32:21.723Z,1.60
2023-01-11T08:34:50.526Z,1.38
2023-01-11T08:37:19.293Z,1.60
2023-01-11T08:39:48.782Z,1.40
2023-01-11T08:42:17.603Z,1.10
2023-01-11T08:44:46.368Z,1.42
2023-01-11T08:47:15.249Z,1.38
2023-01-11T08:49:45.413Z,1.30
2023-01-11T08:52:15.566Z,1.38
2023-01-11T08:54:44.290Z,1.20
2023-01-11T08:57:13.133Z,1.50
2023-01-11T08:59:42.071Z,1.33
2023-01-11T09:02:13.165Z,1.00
2023-01-11T09:04:44.481Z,1.48
2023-01-11T09:07:13.205Z,1.42
2023-01-11T09:09:42.078Z,1.42
2023-01-11T09:12:10.918Z,1.35
2023-01-11T09:14:39.706Z,1.40
2023-01-11T09:17:08.501Z,1.23
2023-01-11T09:19:38.171Z,0.80
2023-01-11T09:22:08.389Z,3.50
2023-01-11T09:24:37.165Z,4.60
2023-01-11T09:27:06.274Z,4.95
2023-01-11T09:29:37.296Z,4.43
2023-01-11T09:32:07.099Z,6.43
2023-01-11T09:34:36.064Z,4.18
2023-01-11T09:37:07.376Z,4.55
2023-01-11T09:39:37.241Z,3.88
2023-01-11T09:42:37.669Z,3.47
2023-01-11T09:45:15.089Z,3.65
2023-01-11T09:47:51.289Z,3.53
2023-01-11T09:50:26.747Z,3.05
2023-01-11T09:53:00.871Z,4.30
2023-01-11T09:55:37.208Z,3.60
2023-01-11T09:58:51.097Z,3.25
2023-01-11T10:01:31.249Z,2.47
2023-01-11T10:04:48.650Z,2.80
2023-01-11T10:07:53.830Z,2.72
2023-01-11T10:18:31.923Z,1.63
2023-01-11T10:18:34.071Z,1.95
2023-01-11T10:20:01.958Z,3.75
2023-01-11T10:22:39.687Z,1.15
2023-01-11T10:25:22.038Z,1.02
2023-01-11T10:28:00.869Z,1.30
2023-01-11T10:30:52.051Z,1.15
2023-01-11T10:33:49.938Z,0.63
2023-01-11T10:36:39.697Z,0.60
2023-01-11T10:39:35.917Z,0.40
2023-01-11T10:42:11.815Z,0.65
2023-01-11T10:44:57.829Z,0.35
2023-01-11T10:47:37.176Z,0.40
2023-01-11T10:50:20.552Z,0.68
2023-01-11T10:53:02.791Z,0.32
2023-01-11T10:55:46.471Z,0.40
2023-01-11T10:58:31.495Z,0.70
2023-01-11T11:01:20.529Z,0.73
2023-01-11T11:04:15.269Z,0.60
2023-01-11T11:06:59.073Z,0.60
2023-01-11T11:09:38.637Z,0.73
2023-01-11T11:12:13.953Z,0.57
2023-01-11T11:14:54.275Z,0.93
2023-01-11T11:17:32.049Z,0.65
2023-01-11T11:20:01.438Z,0.70
2023-01-11T11:22:30.393Z,1.00
2023-01-11T11:25:05.347Z,0.70
2023-01-11T11:27:45.570Z,0.90
2023-01-11T11:30:26.001Z,1.10
2023-01-11T11:33:02.351Z,0.70
2023-01-11T11:35:34.018Z,0.73
2023-01-11T11:38:03.307Z,0.68
2023-01-11T11:40:36.463Z,0.60
2023-01-11T11:43:19.510Z,1.65
2023-01-11T11:45:57.919Z,0.80
2023-01-11T11:48:31.276Z,0.60
2023-01-11T11:51:05.530Z,0.98
2023-01-11T11:53:43.798Z,1.30
2023-01-11T11:56:25.433Z,0.90
2023-01-11T11:58:56.601Z,0.77
2023-01-11T12:01:31.586Z,0.82
2023-01-11T12:04:11.256Z,0.98
2023-01-11T12:06:41.784Z,1.20
2023-01-11T12:09:25.211Z,1.02
2023-01-11T12:11:54.309Z,1.08
2023-01-11T12:14:29.354Z,1.00
2023-01-11T12:17:00.106Z,1.02
2023-01-11T12:19:37.789Z,1.33
2023-01-11T12:22:19.162Z,1.20
2023-01-11T12:24:49.555Z,1.08
2023-01-11T12:27:39.988Z,1.30
2023-01-11T12:30:23.338Z,1.00
2023-01-11T12:33:26.663Z,0.63
2023-01-11T12:36:06.735Z,0.90
2023-01-11T12:38:52.558Z,0.80
2023-01-11T12:42:01.699Z,1.20
2023-01-11T12:44:57.603Z,0.82
2023-01-11T12:48:17.591Z,0.93
2023-01-11T12:51:10.526Z,0.98
2023-01-11T12:54:00.120Z,1.20
2023-01-11T12:57:07.510Z,0.80
2023-01-11T13:00:17.257Z,1.08
2023-01-11T13:03:26.708Z,1.20
2023-01-11T13:06:09.124Z,1.10
2023-01-11T13:08:57.323Z,0.80
2023-01-11T13:11:43.646Z,1.05
2023-01-11T13:14:44.287Z,0.90
2023-01-11T13:17:29.154Z,0.80
2023-01-11T13:20:19.568Z,1.20
2023-01-11T13:22:55.503Z,1.48
2023-01-11T13:25:29.320Z,1.58
2023-01-11T13:28:02.891Z,1.90
2023-01-11T13:30:34.098Z,2.50
2023-01-11T13:33:20.441Z,1.90
2023-01-11T13:35:56.625Z,1.25
2023-01-11T13:38:39.048Z,1.85
2023-01-11T13:41:20.370Z,3.15
2023-01-11T13:43:57.503Z,2.25
2023-01-11T13:46:50.157Z,1.63
2023-01-11T13:49:52.947Z,3.30
2023-01-11T13:52:37.957Z,4.38
2023-01-11T13:55:24.918Z,6.75
2023-01-11T13:58:03.995Z,2.33
2023-01-11T14:00:41.267Z,3.42
2023-01-11T14:03:27.274Z,2.25
2023-01-11T14:06:22.088Z,2.75
2023-01-11T14:09:11.073Z,2.95
2023-01-11T14:11:58.551Z,2.70
2023-01-11T14:14:56.065Z,2.50
2023-01-11T14:18:18.295Z,2.50
2023-01-11T14:20:59.251Z,3.35
2023-01-11T14:23:38.176Z,3.25
2023-01-11T14:27:00.640Z,2.20
2023-01-11T14:29:59.299Z,3.10
2023-01-11T14:33:02.773Z,2.25
2023-01-11T14:36:38.500Z,2.47
2023-01-11T14:39:45.972Z,3.03
2023-01-11T14:42:49.754Z,2.75
2023-01-11T14:45:31.600Z,2.20
2023-01-11T14:48:23.731Z,2.30
2023-01-11T14:51:32.679Z,3.03
2023-01-11T14:54:09.748Z,2.72
2023-01-11T14:56:52.811Z,3.90
2023-01-11T14:59:37.849Z,10.38
2023-01-11T15:02:26.316Z,3.95
2023-01-11T15:05:34.809Z,2.63
2023-01-11T15:08:23.499Z,2.33
2023-01-11T15:10:58.508Z,2.50
2023-01-11T15:13:33.827Z,3.05
2023-01-11T15:16:39.631Z,4.13
2023-01-11T15:19:14.367Z,4.20
2023-01-11T15:21:53.353Z,2.70
2023-01-11T15:24:27.549Z,2.55
2023-01-11T15:26:58.776Z,2.70
2023-01-11T15:29:32.493Z,2.17
2023-01-11T15:32:29.606Z,2.30
2023-01-11T15:35:33.063Z,2.50
2023-01-11T15:38:12.443Z,2.20
2023-01-11T15:40:46.485Z,2.17
2023-01-11T15:44:05.127Z,3.80
2023-01-11T15:47:43.087Z,2.05
2023-01-11T15:51:07.940Z,2.50
2023-01-11T15:54:16.254Z,2.22
2023-01-11T15:57:22.329Z,2.22
2023-01-11T16:00:30.112Z,2.28
2023-01-11T16:03:54.255Z,2.70
2023-01-11T16:06:39.622Z,3.35
2023-01-11T16:10:01.386Z,3.10
2023-01-11T16:13:01.098Z,3.20
2023-01-11T16:15:46.225Z,3.22
2023-01-11T16:18:22.206Z,3.50
2023-01-11T16:21:03.965Z,4.20
2023-01-11T16:23:34.751Z,4.18
2023-01-11T16:26:05.067Z,3.92
2023-01-11T16:28:34.237Z,4.78
2023-01-11T16:31:06.018Z,8.10
2023-01-11T16:33:36.110Z,6.63
2023-01-11T16:36:12.208Z,6.10
2023-01-11T16:39:03.733Z,4.88
2023-01-11T16:41:45.121Z,7.13
2023-01-11T16:44:29.872Z,5.97
2023-01-11T16:47:18.129Z,5.78
2023-01-11T16:49:50.005Z,7.03
2023-01-11T16:52:47.562Z,18.05
2023-01-11T16:55:36.096Z,17.88
2023-01-11T16:58:08.526Z,20.52
2023-01-11T17:00:39.998Z,8.38
2023-01-11T17:03:23.959Z,9.18
2023-01-11T17:06:19.706Z,8.60
2023-01-11T17:08:52.896Z,8.63
2023-01-11T17:11:36.396Z,4.68
2023-01-11T17:14:42.364Z,4.40
2023-01-11T17:17:13.282Z,4.32
2023-01-11T17:19:47.872Z,4.35
2023-01-11T17:22:23.745Z,4.50
2023-01-11T17:24:59.447Z,4.60
2023-01-11T17:27:33.335Z,4.20
2023-01-11T17:30:04.826Z,4.88
2023-01-11T17:32:39.222Z,5.22
2023-01-11T17:35:17.110Z,5.68
2023-01-11T17:37:48.900Z,5.75
2023-01-11T17:40:26.950Z,4.65
2023-01-11T17:43:18.907Z,5.60
2023-01-11T17:45:50.676Z,5.43
2023-01-11T17:48:20.592Z,6.07
2023-01-11T17:50:54.719Z,5.70
2023-01-11T17:53:26.963Z,5.38
2023-01-11T17:56:00.402Z,6.30
2023-01-11T17:58:30.969Z,6.50
2023-01-11T18:01:21.523Z,6.78
2023-01-11T18:03:53.713Z,6.38
2023-01-11T18:06:33.097Z,5.88
2023-01-11T18:09:05.366Z,5.32
2023-01-11T18:11:40.384Z,5.82
2023-01-11T18:14:20.998Z,7.13
2023-01-11T18:17:05.600Z,7.35
2023-01-11T18:19:39.499Z,7.53
2023-01-11T18:22:30.856Z,8.23
2023-01-11T18:25:02.199Z,6.85
2023-01-11T18:27:35.039Z,6.28
2023-01-11T18:30:11.449Z,6.05
2023-01-11T18:32:45.051Z,7.65
2023-01-11T18:35:19.421Z,7.43
2023-01-11T18:37:48.783Z,7.82
2023-01-11T18:40:19.954Z,6.72
2023-01-11T18:42:54.802Z,6.18
2023-01-11T18:45:25.036Z,6.18
2023-01-11T18:47:53.968Z,7.97
2023-01-11T18:50:24.046Z,17.95
2023-01-11T18:52:52.866Z,16.50
2023-01-11T18:55:21.719Z,11.57
2023-01-11T18:57:52.201Z,10.35
2023-01-11T19:00:21.902Z,11.05
2023-01-11T19:05:30.255Z,7.28
2023-01-11T19:07:59.109Z,9.23
2023-01-11T19:10:28.862Z,8.75
2023-01-11T19:13:01.091Z,8.25
2023-01-11T19:15:29.938Z,8.75
2023-01-11T19:20:32.732Z,7.68
2023-01-11T19:23:01.797Z,7.20
2023-01-11T19:25:30.693Z,6.60
2023-01-11T19:28:01.220Z,6.43
2023-01-11T19:30:30.251Z,6.22
2023-01-11T19:32:59.219Z,7.10
2023-01-11T19:35:28.010Z,6.13
2023-01-11T19:37:57.826Z,5.97
2023-01-11T19:40:26.678Z,8.07
2023-01-11T19:42:57.538Z,9.07
2023-01-11T19:45:27.841Z,10.20
2023-01-11T19:47:59.858Z,7.75
2023-01-11T19:50:33.520Z,8.43
2023-01-11T19:53:02.803Z,7.72
2023-01-11T19:55:31.773Z,11.50
2023-01-11T19:58:04.703Z,10.70
2023-01-11T20:00:35.469Z,9.65
2023-01-11T20:03:06.315Z,7.68
2023-01-11T20:05:35.523Z,7.20
2023-01-11T20:08:04.703Z,8.75
2023-01-11T20:10:33.699Z,9.13
2023-01-11T20:13:05.562Z,10.05
2023-01-11T20:15:37.937Z,9.20
2023-01-11T20:18:07.054Z,10.07
2023-01-11T20:20:36.552Z,10.23
2023-01-11T20:23:05.768Z,10.48
2023-01-11T20:25:34.798Z,9.35
2023-01-11T20:28:03.657Z,9.07
2023-01-11T20:30:32.533Z,9.75
2023-01-11T20:33:02.900Z,8.40
2023-01-11T20:35:31.771Z,9.23
2023-01-11T20:38:00.993Z,9.68
2023-01-11T20:40:30.229Z,8.85
2023-01-11T20:42:59.107Z,8.43
2023-01-11T20:45:29.313Z,8.13
2023-01-11T20:47:58.260Z,8.82
2023-01-11T20:50:28.581Z,7.80
2023-01-11T20:52:59.504Z,11.88
2023-01-11T20:55:28.768Z,10.60
2023-01-11T20:57:58.528Z,10.70
2023-01-11T21:00:29.801Z,9.63
2023-01-11T21:02:58.857Z,9.20
2023-01-11T21:05:29.323Z,8.30
2023-01-11T21:07:58.359Z,8.45
2023-01-11T21:10:27.191Z,8.70
2023-01-11T21:15:27.176Z,8.40
2023-01-11T21:17:56.142Z,8.73
2023-01-11T21:20:28.876Z,9.52
2023-01-11T21:22:57.840Z,9.82
2023-01-11T21:25:27.098Z,8.88
2023-01-11T21:27:56.222Z,8.93
2023-01-11T21:30:25.566Z,7.95
2023-01-11T21:32:57.304Z,7.13
2023-01-11T21:35:27.257Z,8.02
2023-01-11T21:37:57.776Z,8.93
2023-01-11T21:40:27.236Z,8.15
2023-01-11T21:42:56.516Z,8.50
2023-01-11T21:45:25.721Z,8.93
2023-01-11T21:47:54.577Z,8.10
2023-01-11T21:50:23.483Z,7.78
2023-01-11T21:52:56.772Z,8.02
2023-01-11T21:55:25.671Z,7.38
2023-01-11T21:57:55.326Z,7.53
2023-01-11T22:00:24.408Z,7.35
2023-01-11T22:02:53.468Z,7.25
2023-01-11T22:05:22.333Z,7.93
2023-01-11T22:07:51.423Z,8.77
2023-01-11T22:10:24.205Z,12.13
2023-01-11T22:12:53.225Z,18.88
2023-01-11T22:15:22.248Z,18.75
2023-01-11T22:17:51.400Z,16.92
2023-01-11T22:20:20.441Z,14.65
2023-01-11T22:22:49.375Z,12.45
2023-01-11T22:25:18.850Z,9.75
2023-01-11T22:27:49.299Z,8.95
2023-01-11T22:30:19.003Z,8.27
2023-01-11T22:32:48.014Z,8.68
2023-01-11T22:35:17.259Z,9.40
2023-01-11T22:37:46.231Z,8.45
2023-01-11T22:40:16.519Z,9.02
2023-01-11T22:42:45.515Z,8.68
2023-01-11T22:45:16.076Z,9.32
2023-01-11T22:47:45.701Z,9.50
2023-01-11T22:50:14.861Z,9.57
2023-01-11T22:52:43.797Z,10.60
2023-01-11T22:55:12.713Z,9.68
2023-01-11T22:57:41.680Z,9.68
2023-01-11T23:00:14.759Z,9.10
2023-01-11T23:02:43.800Z,8.73
2023-01-11T23:05:12.766Z,8.40
2023-01-11T23:07:41.711Z,9.57
2023-01-11T23:10:13.797Z,9.45
2023-01-11T23:13:00.211Z,9.00
2023-01-11T23:15:30.885Z,9.25
2023-01-11T23:17:59.923Z,9.05
2023-01-11T23:20:28.932Z,8.55
2023-01-11T23:22:57.856Z,9.02
2023-01-11T23:25:26.960Z,9.45
2023-01-11T23:27:56.714Z,9.70
2023-01-11T23:30:25.586Z,9.50
2023-01-11T23:32:55.909Z,8.77
2023-01-11T23:35:24.915Z,9.43
2023-01-11T23:37:55.981Z,9.10
2023-01-11T23:40:24.965Z,9.80
2023-01-11T23:42:52.811Z,9.80
2023-01-11T23:45:21.724Z,9.02
2023-01-11T23:47:50.244Z,9.57
2023-01-11T23:50:20.533Z,9.07
2023-01-11T23:52:49.565Z,9.60
2023-01-11T23:55:18.523Z,9.60
2023-01-11T23:58:07.376Z,11.33
